sensor_id;sensor_type;location;lat;lon;timestamp;pressure;altitude;pressure_sealevel;temperature;humidity
13241;BME280;6687;47.790;7.322;2023-03-14T06:12:01;97181.56;;;12.44;73.19
13241;BME280;6687;47.790;7.322;2023-03-14T06:14:28;97177.03;;;12.49;72.98
13241;BME280;6687;47.790;7.322;2023-03-14T06:16:55;97181.97;;;12.57;72.59
13241;BME280;6687;47.790;7.322;2023-03-14T06:19:21;97184.91;;;12.47;72.66
13241;BME280;6687;47.790;7.322;2023-03-14T06:21:48;97181.72;;;12.39;72.42
13241;BME280;6687;47.790;7.322;2023-03-14T06:24:15;97183.13;;;12.49;72.76
13241;BME280;6687;47.790;7.322;2023-03-14T06:26:42;97178.75;;;12.50;72.40
13241;BME280;6687;47.790;7.322;2023-03-14T06:29:10;97185.00;;;12.44;72.67
13241;BME280;6687;47.790;7.322;2023-03-14T06:31:38;97183.94;;;12.50;72.58
13241;BME280;6687;47.790;7.322;2023-03-14T06:34:05;97180.69;;;12.43;72.62
13241;BME280;6687;47.790;7.322;2023-03-14T06:36:32;97185.50;;;12.56;71.75
13241;BME280;6687;47.790;7.322;2023-03-14T06:38:59;97192.38;;;12.57;71.46
13241;BME280;6687;47.790;7.322;2023-03-14T06:41:25;97194.91;;;12.58;71.63
13241;BME280;6687;47.790;7.322;2023-03-14T06:43:52;97199.38;;;12.54;71.60
13241;BME280;6687;47.790;7.322;2023-03-14T06:46:20;97198.38;;;12.59;71.70
13241;BME280;6687;47.790;7.322;2023-03-14T06:48:47;97201.75;;;12.61;71.36
13241;BME280;6687;47.790;7.322;2023-03-14T06:51:14;97203.03;;;12.74;71.25
13241;BME280;6687;47.790;7.322;2023-03-14T06:53:40;97212.38;;;12.80;70.55
13241;BME280;6687;47.790;7.322;2023-03-14T06:56:07;97216.59;;;12.82;70.51
13241;BME280;6687;47.790;7.322;2023-03-14T06:58:34;97211.19;;;12.88;70.30
13241;BME280;6687;47.790;7.322;2023-03-14T07:01:01;97210.84;;;12.98;69.71
13241;BME280;6687;47.790;7.322;2023-03-14T07:03:29;97219.66;;;12.93;69.05
13241;BME280;6687;47.790;7.322;2023-03-14T07:05:56;97220.03;;;13.08;69.02
13241;BME280;6687;47.790;7.322;2023-03-14T07:08:22;97220.69;;;12.89;68.66
13241;BME280;6687;47.790;7.322;2023-03-14T07:10:49;97225.81;;;12.91;68.85
13241;BME280;6687;47.790;7.322;2023-03-14T07:13:16;97236.09;;;12.69;68.52
13241;BME280;6687;47.790;7.322;2023-03-14T07:15:43;97233.34;;;12.99;68.09
13241;BME280;6687;47.790;7.322;2023-03-14T07:18:09;97240.69;;;12.87;67.60
13241;BME280;6687;47.790;7.322;2023-03-14T07:20:37;97246.38;;;12.73;69.05
13241;BME280;6687;47.790;7.322;2023-03-14T07:23:05;97244.31;;;13.07;68.35
13241;BME280;6687;47.790;7.322;2023-03-14T07:25:31;97253.66;;;13.12;68.01
13241;BME280;6687;47.790;7.322;2023-03-14T07:27:58;97259.88;;;13.33;67.15
13241;BME280;6687;47.790;7.322;2023-03-14T07:30:25;97271.81;;;13.39;67.46
13241;BME280;6687;47.790;7.322;2023-03-14T07:32:51;97274.19;;;12.95;69.19
13241;BME280;6687;47.790;7.322;2023-03-14T07:35:18;97270.78;;;13.18;67.64
13241;BME280;6687;47.790;7.322;2023-03-14T07:37:46;97275.06;;;12.96;68.08
13241;BME280;6687;47.790;7.322;2023-03-14T07:40:13;97285.56;;;12.92;67.98
13241;BME280;6687;47.790;7.322;2023-03-14T07:42:40;97277.69;;;13.19;68.33
13241;BME280;6687;47.790;7.322;2023-03-14T07:45:08;97282.78;;;13.22;68.48
13241;BME280;6687;47.790;7.322;2023-03-14T07:47:35;97286.81;;;13.06;67.68
13241;BME280;6687;47.790;7.322;2023-03-14T07:50:02;97287.47;;;13.38;68.04
13241;BME280;6687;47.790;7.322;2023-03-14T07:52:29;97283.13;;;13.13;67.09
13241;BME280;6687;47.790;7.322;2023-03-14T07:54:57;97285.41;;;13.46;67.97
13241;BME280;6687;47.790;7.322;2023-03-14T07:57:24;97294.47;;;13.36;67.34
13241;BME280;6687;47.790;7.322;2023-03-14T07:59:51;97296.31;;;13.32;65.93
13241;BME280;6687;47.790;7.322;2023-03-14T08:02:17;97304.19;;;13.30;66.75
13241;BME280;6687;47.790;7.322;2023-03-14T08:04:47;97308.13;;;13.41;65.28
13241;BME280;6687;47.790;7.322;2023-03-14T08:07:14;97304.59;;;13.67;66.37
13241;BME280;6687;47.790;7.322;2023-03-14T08:09:41;97313.16;;;13.47;65.18
13241;BME280;6687;47.790;7.322;2023-03-14T08:12:09;97310.47;;;13.48;66.79
13241;BME280;6687;47.790;7.322;2023-03-14T08:14:36;97312.91;;;13.28;65.55
13241;BME280;6687;47.790;7.322;2023-03-14T08:17:02;97310.28;;;13.77;65.49
13241;BME280;6687;47.790;7.322;2023-03-14T08:19:30;97319.38;;;13.88;65.48
13241;BME280;6687;47.790;7.322;2023-03-14T08:21:57;97317.53;;;13.68;64.51
13241;BME280;6687;47.790;7.322;2023-03-14T08:24:23;97313.56;;;14.05;63.69
13241;BME280;6687;47.790;7.322;2023-03-14T08:26:50;97322.84;;;14.12;63.55
13241;BME280;6687;47.790;7.322;2023-03-14T08:29:18;97323.53;;;14.38;64.11
13241;BME280;6687;47.790;7.322;2023-03-14T08:31:45;97319.88;;;13.98;61.89
13241;BME280;6687;47.790;7.322;2023-03-14T08:34:11;97327.31;;;14.09;62.05
13241;BME280;6687;47.790;7.322;2023-03-14T08:36:38;97326.13;;;14.38;63.83
13241;BME280;6687;47.790;7.322;2023-03-14T08:39:05;97321.72;;;14.40;62.13
13241;BME280;6687;47.790;7.322;2023-03-14T08:41:34;97326.56;;;14.49;62.92
13241;BME280;6687;47.790;7.322;2023-03-14T08:44:05;97327.81;;;14.19;63.45
13241;BME280;6687;47.790;7.322;2023-03-14T08:46:34;97321.03;;;14.59;62.30
13241;BME280;6687;47.790;7.322;2023-03-14T08:49:01;97310.94;;;14.71;61.53
13241;BME280;6687;47.790;7.322;2023-03-14T08:51:27;97324.09;;;14.68;61.82
13241;BME280;6687;47.790;7.322;2023-03-14T08:53:54;97319.22;;;14.61;61.48
13241;BME280;6687;47.790;7.322;2023-03-14T08:56:21;97327.06;;;14.37;63.58
13241;BME280;6687;47.790;7.322;2023-03-14T08:58:47;97328.44;;;14.24;63.30
13241;BME280;6687;47.790;7.322;2023-03-14T09:01:14;97333.59;;;14.47;64.45
13241;BME280;6687;47.790;7.322;2023-03-14T09:03:42;97331.94;;;14.68;64.39
13241;BME280;6687;47.790;7.322;2023-03-14T09:06:10;97332.28;;;14.37;65.87
13241;BME280;6687;47.790;7.322;2023-03-14T09:08:36;97327.22;;;14.10;67.76
13241;BME280;6687;47.790;7.322;2023-03-14T09:11:07;97343.78;;;13.62;69.74
13241;BME280;6687;47.790;7.322;2023-03-14T09:13:33;97347.97;;;13.90;69.40
13241;BME280;6687;47.790;7.322;2023-03-14T09:16:01;97349.91;;;13.85;69.76
13241;BME280;6687;47.790;7.322;2023-03-14T09:18:27;97350.91;;;14.04;68.86
13241;BME280;6687;47.790;7.322;2023-03-14T09:20:56;97369.22;;;14.03;68.72
13241;BME280;6687;47.790;7.322;2023-03-14T09:23:23;97359.69;;;13.78;71.12
13241;BME280;6687;47.790;7.322;2023-03-14T09:25:54;97358.19;;;13.49;72.89
13241;BME280;6687;47.790;7.322;2023-03-14T09:28:21;97358.41;;;13.90;72.27
13241;BME280;6687;47.790;7.322;2023-03-14T09:30:47;97369.06;;;13.35;74.99
13241;BME280;6687;47.790;7.322;2023-03-14T09:33:15;97366.44;;;13.84;73.06
13241;BME280;6687;47.790;7.322;2023-03-14T09:35:41;97367.84;;;13.92;72.07
13241;BME280;6687;47.790;7.322;2023-03-14T09:38:09;97371.63;;;14.07;71.19
13241;BME280;6687;47.790;7.322;2023-03-14T09:40:37;97373.28;;;13.86;72.81
13241;BME280;6687;47.790;7.322;2023-03-14T09:43:05;97381.25;;;14.05;71.56
13241;BME280;6687;47.790;7.322;2023-03-14T09:45:34;97376.59;;;14.13;70.89
13241;BME280;6687;47.790;7.322;2023-03-14T09:48:03;97377.66;;;13.61;73.17
13241;BME280;6687;47.790;7.322;2023-03-14T09:50:37;97380.78;;;13.70;73.24
13241;BME280;6687;47.790;7.322;2023-03-14T09:53:11;97384.88;;;14.25;71.10
13241;BME280;6687;47.790;7.322;2023-03-14T09:55:41;97384.78;;;13.81;72.72
13241;BME280;6687;47.790;7.322;2023-03-14T09:58:11;97391.13;;;13.23;76.10
13241;BME280;6687;47.790;7.322;2023-03-14T10:00:38;97393.72;;;13.73;74.03
13241;BME280;6687;47.790;7.322;2023-03-14T10:03:21;97386.22;;;13.64;74.16
13241;BME280;6687;47.790;7.322;2023-03-14T10:05:48;97394.69;;;13.71;74.72
13241;BME280;6687;47.790;7.322;2023-03-14T10:08:16;97400.59;;;13.75;75.46
13241;BME280;6687;47.790;7.322;2023-03-14T10:10:43;97403.28;;;13.73;74.27
13241;BME280;6687;47.790;7.322;2023-03-14T10:13:15;97405.72;;;13.78;75.09
13241;BME280;6687;47.790;7.322;2023-03-14T10:15:46;97396.44;;;13.94;74.69
13241;BME280;6687;47.790;7.322;2023-03-14T10:18:14;97403.44;;;13.92;74.55
13241;BME280;6687;47.790;7.322;2023-03-14T10:20:43;97409.09;;;13.80;75.70
13241;BME280;6687;47.790;7.322;2023-03-14T10:23:23;97414.09;;;13.61;76.25
13241;BME280;6687;47.790;7.322;2023-03-14T10:26:02;97411.94;;;13.97;74.48
13241;BME280;6687;47.790;7.322;2023-03-14T10:28:31;97407.81;;;13.91;75.05
13241;BME280;6687;47.790;7.322;2023-03-14T10:30:59;97411.81;;;14.00;74.62
13241;BME280;6687;47.790;7.322;2023-03-14T10:33:27;97410.47;;;13.90;75.33
13241;BME280;6687;47.790;7.322;2023-03-14T10:35:56;97414.63;;;13.70;77.51
13241;BME280;6687;47.790;7.322;2023-03-14T10:38:26;97414.50;;;13.75;78.56
13241;BME280;6687;47.790;7.322;2023-03-14T10:40:54;97442.06;;;13.81;77.78
13241;BME280;6687;47.790;7.322;2023-03-14T10:43:23;97449.06;;;13.53;79.39
13241;BME280;6687;47.790;7.322;2023-03-14T10:45:54;97452.44;;;13.30;81.79
13241;BME280;6687;47.790;7.322;2023-03-14T10:48:29;97466.38;;;13.29;82.29
13241;BME280;6687;47.790;7.322;2023-03-14T10:51:01;97475.13;;;13.52;81.48
13241;BME280;6687;47.790;7.322;2023-03-14T10:53:34;97480.63;;;13.16;82.73
13241;BME280;6687;47.790;7.322;2023-03-14T10:56:05;97486.25;;;13.57;81.05
13241;BME280;6687;47.790;7.322;2023-03-14T10:58:37;97501.97;;;13.54;81.26
13241;BME280;6687;47.790;7.322;2023-03-14T11:01:16;97503.88;;;13.49;81.54
13241;BME280;6687;47.790;7.322;2023-03-14T11:03:51;97523.88;;;13.73;80.64
13241;BME280;6687;47.790;7.322;2023-03-14T11:06:23;97537.69;;;13.76;78.50
13241;BME280;6687;47.790;7.322;2023-03-14T11:08:57;97550.94;;;13.68;79.24
13241;BME280;6687;47.790;7.322;2023-03-14T11:11:31;97559.03;;;14.10;78.39
13241;BME280;6687;47.790;7.322;2023-03-14T11:14:06;97569.34;;;14.13;77.08
13241;BME280;6687;47.790;7.322;2023-03-14T11:16:40;97585.41;;;13.75;76.46
13241;BME280;6687;47.790;7.322;2023-03-14T11:19:22;97597.09;;;13.89;74.71
13241;BME280;6687;47.790;7.322;2023-03-14T11:21:55;97611.88;;;14.39;75.23
13241;BME280;6687;47.790;7.322;2023-03-14T11:24:44;97615.38;;;13.88;71.49
13241;BME280;6687;47.790;7.322;2023-03-14T11:27:17;97645.16;;;14.06;70.13
13241;BME280;6687;47.790;7.322;2023-03-14T11:29:51;97639.38;;;13.96;69.38
13241;BME280;6687;47.790;7.322;2023-03-14T11:32:32;97651.31;;;14.53;69.70
13241;BME280;6687;47.790;7.322;2023-03-14T11:35:03;97675.91;;;14.21;71.22
13241;BME280;6687;47.790;7.322;2023-03-14T11:37:33;97692.53;;;13.03;74.42
13241;BME280;6687;47.790;7.322;2023-03-14T11:40:06;97722.44;;;12.21;75.60
13241;BME280;6687;47.790;7.322;2023-03-14T11:42:35;97735.16;;;11.57;73.33
13241;BME280;6687;47.790;7.322;2023-03-14T11:45:03;97745.78;;;11.83;70.55
13241;BME280;6687;47.790;7.322;2023-03-14T11:47:33;97766.66;;;11.79;67.50
13241;BME280;6687;47.790;7.322;2023-03-14T11:50:08;97774.72;;;12.05;66.23
13241;BME280;6687;47.790;7.322;2023-03-14T11:52:41;97782.47;;;12.07;62.49
13241;BME280;6687;47.790;7.322;2023-03-14T11:55:18;97806.47;;;11.78;59.34
13241;BME280;6687;47.790;7.322;2023-03-14T11:57:48;97811.69;;;12.17;58.75
13241;BME280;6687;47.790;7.322;2023-03-14T12:00:19;97808.81;;;12.63;58.41
13241;BME280;6687;47.790;7.322;2023-03-14T12:02:52;97826.00;;;12.69;59.02
13241;BME280;6687;47.790;7.322;2023-03-14T12:05:37;97846.06;;;12.98;60.35
13241;BME280;6687;47.790;7.322;2023-03-14T12:08:22;97857.66;;;12.50;55.69
13241;BME280;6687;47.790;7.322;2023-03-14T12:10:54;97857.72;;;12.83;53.89
13241;BME280;6687;47.790;7.322;2023-03-14T12:13:28;97880.59;;;12.69;52.02
13241;BME280;6687;47.790;7.322;2023-03-14T12:15:57;97886.88;;;13.30;56.08
13241;BME280;6687;47.790;7.322;2023-03-14T12:18:27;97899.84;;;12.62;51.49
13241;BME280;6687;47.790;7.322;2023-03-14T12:20:56;97902.75;;;12.85;52.26
13241;BME280;6687;47.790;7.322;2023-03-14T12:23:24;97908.44;;;12.64;50.21
13241;BME280;6687;47.790;7.322;2023-03-14T12:26:12;97927.94;;;12.44;49.82
13241;BME280;6687;47.790;7.322;2023-03-14T12:28:42;97935.41;;;12.96;50.14
13241;BME280;6687;47.790;7.322;2023-03-14T12:31:35;97958.28;;;12.81;49.52
13241;BME280;6687;47.790;7.322;2023-03-14T12:34:03;97959.69;;;12.94;49.74
13241;BME280;6687;47.790;7.322;2023-03-14T12:36:51;97965.84;;;13.26;50.63
13241;BME280;6687;47.790;7.322;2023-03-14T12:39:21;97971.88;;;13.28;48.86
13241;BME280;6687;47.790;7.322;2023-03-14T12:42:02;97976.00;;;12.64;49.54
13241;BME280;6687;47.790;7.322;2023-03-14T12:44:44;97991.88;;;12.51;49.85
13241;BME280;6687;47.790;7.322;2023-03-14T12:50:24;98017.25;;;11.95;50.57
13241;BME280;6687;47.790;7.322;2023-03-14T12:56:10;98012.59;;;11.64;52.11
13241;BME280;6687;47.790;7.322;2023-03-14T12:58:49;98023.41;;;11.89;51.34
13241;BME280;6687;47.790;7.322;2023-03-14T13:01:20;98021.72;;;11.85;50.94
13241;BME280;6687;47.790;7.322;2023-03-14T13:03:50;98016.59;;;12.27;50.44
13241;BME280;6687;47.790;7.322;2023-03-14T13:06:50;98022.44;;;11.95;50.81
13241;BME280;6687;47.790;7.322;2023-03-14T13:09:45;98017.72;;;12.58;49.96
13241;BME280;6687;47.790;7.322;2023-03-14T13:12:18;98030.66;;;13.00;50.90
13241;BME280;6687;47.790;7.322;2023-03-14T13:14:49;98038.09;;;13.15;52.30
13241;BME280;6687;47.790;7.322;2023-03-14T13:17:23;98040.03;;;12.68;50.14
13241;BME280;6687;47.790;7.322;2023-03-14T13:19:53;98029.50;;;12.74;49.52
13241;BME280;6687;47.790;7.322;2023-03-14T13:22:24;98035.41;;;13.18;49.39
13241;BME280;6687;47.790;7.322;2023-03-14T13:24:58;98057.38;;;13.06;48.37
13241;BME280;6687;47.790;7.322;2023-03-14T13:27:25;98048.59;;;13.10;48.89
13241;BME280;6687;47.790;7.322;2023-03-14T13:29:53;98054.97;;;13.70;50.79
13241;BME280;6687;47.790;7.322;2023-03-14T13:32:22;98058.56;;;13.66;50.57
13241;BME280;6687;47.790;7.322;2023-03-14T13:34:55;98074.69;;;13.07;48.81
13241;BME280;6687;47.790;7.322;2023-03-14T13:37:23;98075.34;;;13.17;49.29
13241;BME280;6687;47.790;7.322;2023-03-14T13:39:51;98063.97;;;12.82;47.95
13241;BME280;6687;47.790;7.322;2023-03-14T13:42:18;98080.47;;;13.20;51.01
13241;BME280;6687;47.790;7.322;2023-03-14T13:44:46;98080.53;;;13.17;50.13
13241;BME280;6687;47.790;7.322;2023-03-14T13:47:16;98078.66;;;13.24;49.33
13241;BME280;6687;47.790;7.322;2023-03-14T13:49:43;98070.91;;;13.58;51.16
13241;BME280;6687;47.790;7.322;2023-03-14T13:52:22;98074.38;;;13.21;49.85
13241;BME280;6687;47.790;7.322;2023-03-14T13:54:53;98076.97;;;12.82;50.70
13241;BME280;6687;47.790;7.322;2023-03-14T13:57:19;98068.47;;;12.74;49.35
13241;BME280;6687;47.790;7.322;2023-03-14T13:59:58;98074.09;;;12.94;48.35
13241;BME280;6687;47.790;7.322;2023-03-14T14:02:28;98075.81;;;12.96;48.40
13241;BME280;6687;47.790;7.322;2023-03-14T14:04:57;98083.41;;;13.05;47.54
13241;BME280;6687;47.790;7.322;2023-03-14T14:07:25;98079.28;;;12.94;47.98
13241;BME280;6687;47.790;7.322;2023-03-14T14:09:53;98078.22;;;12.63;47.53
13241;BME280;6687;47.790;7.322;2023-03-14T14:12:22;98073.75;;;13.10;49.88
13241;BME280;6687;47.790;7.322;2023-03-14T14:14:55;98077.75;;;12.87;47.73
13241;BME280;6687;47.790;7.322;2023-03-14T14:17:27;98082.22;;;12.79;46.73
13241;BME280;6687;47.790;7.322;2023-03-14T14:19:57;98081.25;;;13.61;51.41
13241;BME280;6687;47.790;7.322;2023-03-14T14:22:25;98086.09;;;13.02;47.47
13241;BME280;6687;47.790;7.322;2023-03-14T14:24:52;98087.13;;;13.33;47.81
13241;BME280;6687;47.790;7.322;2023-03-14T14:27:24;98096.38;;;13.06;47.55
13241;BME280;6687;47.790;7.322;2023-03-14T14:29:59;98115.03;;;12.41;48.35
13241;BME280;6687;47.790;7.322;2023-03-14T14:32:34;98117.84;;;12.30;49.53
13241;BME280;6687;47.790;7.322;2023-03-14T14:35:02;98128.19;;;12.33;51.02
13241;BME280;6687;47.790;7.322;2023-03-14T14:37:32;98122.22;;;12.73;53.21
13241;BME280;6687;47.790;7.322;2023-03-14T14:40:08;98107.47;;;12.74;56.81
13241;BME280;6687;47.790;7.322;2023-03-14T14:42:40;98099.88;;;12.63;56.43
13241;BME280;6687;47.790;7.322;2023-03-14T14:45:13;98098.84;;;12.72;54.99
13241;BME280;6687;47.790;7.322;2023-03-14T14:47:51;98094.94;;;12.06;54.08
13241;BME280;6687;47.790;7.322;2023-03-14T14:50:28;98091.72;;;12.40;58.12
13241;BME280;6687;47.790;7.322;2023-03-14T14:52:57;98087.66;;;12.23;54.14
13241;BME280;6687;47.790;7.322;2023-03-14T14:55:30;98093.25;;;12.50;55.91
13241;BME280;6687;47.790;7.322;2023-03-14T14:57:57;98076.84;;;12.46;53.37
13241;BME280;6687;47.790;7.322;2023-03-14T15:00:26;98073.88;;;12.65;56.12
13241;BME280;6687;47.790;7.322;2023-03-14T15:02:59;98077.34;;;12.22;53.30
13241;BME280;6687;47.790;7.322;2023-03-14T15:05:27;98052.50;;;12.50;58.65
13241;BME280;6687;47.790;7.322;2023-03-14T15:07:56;98055.53;;;12.29;52.85
13241;BME280;6687;47.790;7.322;2023-03-14T15:10:24;98055.50;;;11.84;51.69
13241;BME280;6687;47.790;7.322;2023-03-14T15:12:51;98053.94;;;11.73;51.97
13241;BME280;6687;47.790;7.322;2023-03-14T15:15:18;98054.16;;;12.11;53.62
13241;BME280;6687;47.790;7.322;2023-03-14T15:17:45;98055.16;;;12.04;52.84
13241;BME280;6687;47.790;7.322;2023-03-14T15:20:15;98063.31;;;11.82;54.97
13241;BME280;6687;47.790;7.322;2023-03-14T15:22:43;98066.03;;;11.74;52.83
13241;BME280;6687;47.790;7.322;2023-03-14T15:25:10;98068.66;;;11.71;52.58
13241;BME280;6687;47.790;7.322;2023-03-14T15:27:38;98067.09;;;11.63;52.92
13241;BME280;6687;47.790;7.322;2023-03-14T15:30:10;98067.59;;;11.85;52.89
13241;BME280;6687;47.790;7.322;2023-03-14T15:32:37;98074.34;;;11.95;55.78
13241;BME280;6687;47.790;7.322;2023-03-14T15:35:04;98077.88;;;11.91;54.37
13241;BME280;6687;47.790;7.322;2023-03-14T15:37:32;98087.09;;;12.09;55.45
13241;BME280;6687;47.790;7.322;2023-03-14T15:39:59;98098.94;;;11.72;53.78
13241;BME280;6687;47.790;7.322;2023-03-14T15:42:28;98109.69;;;11.48;54.47
13241;BME280;6687;47.790;7.322;2023-03-14T15:44:55;98130.41;;;11.51;55.43
13241;BME280;6687;47.790;7.322;2023-03-14T15:47:21;98141.00;;;10.72;67.86
13241;BME280;6687;47.790;7.322;2023-03-14T15:49:48;98123.22;;;11.11;70.64
13241;BME280;6687;47.790;7.322;2023-03-14T15:52:14;98111.19;;;11.64;69.21
13241;BME280;6687;47.790;7.322;2023-03-14T15:54:43;98129.66;;;11.44;70.68
13241;BME280;6687;47.790;7.322;2023-03-14T15:57:10;98127.06;;;11.44;70.06
13241;BME280;6687;47.790;7.322;2023-03-14T15:59:37;98123.06;;;11.78;69.88
13241;BME280;6687;47.790;7.322;2023-03-14T16:02:03;98121.38;;;11.77;70.01
13241;BME280;6687;47.790;7.322;2023-03-14T16:04:30;98122.47;;;12.14;69.56
13241;BME280;6687;47.790;7.322;2023-03-14T16:06:57;98117.94;;;11.19;69.97
13241;BME280;6687;47.790;7.322;2023-03-14T16:09:23;98126.63;;;11.16;70.06
13241;BME280;6687;47.790;7.322;2023-03-14T16:11:53;98131.53;;;10.71;69.33
13241;BME280;6687;47.790;7.322;2023-03-14T16:14:20;98137.94;;;11.09;69.66
13241;BME280;6687;47.790;7.322;2023-03-14T16:16:46;98119.34;;;10.78;70.08
13241;BME280;6687;47.790;7.322;2023-03-14T16:19:13;98124.91;;;10.45;69.13
13241;BME280;6687;47.790;7.322;2023-03-14T16:21:40;98131.13;;;10.24;68.51
13241;BME280;6687;47.790;7.322;2023-03-14T16:24:08;98128.47;;;10.35;68.10
13241;BME280;6687;47.790;7.322;2023-03-14T16:26:34;98137.75;;;10.54;68.66
13241;BME280;6687;47.790;7.322;2023-03-14T16:29:03;98139.75;;;10.31;68.12
13241;BME280;6687;47.790;7.322;2023-03-14T16:31:30;98140.69;;;10.18;67.12
13241;BME280;6687;47.790;7.322;2023-03-14T16:34:00;98142.59;;;10.00;66.79
13241;BME280;6687;47.790;7.322;2023-03-14T16:36:27;98149.44;;;10.07;66.56
13241;BME280;6687;47.790;7.322;2023-03-14T16:38:54;98158.03;;;10.09;66.39
13241;BME280;6687;47.790;7.322;2023-03-14T16:41:21;98161.84;;;10.61;66.64
13241;BME280;6687;47.790;7.322;2023-03-14T16:43:48;98176.63;;;10.51;66.41
13241;BME280;6687;47.790;7.322;2023-03-14T16:46:19;98178.16;;;10.71;67.05
13241;BME280;6687;47.790;7.322;2023-03-14T16:48:46;98180.38;;;10.16;66.91
13241;BME280;6687;47.790;7.322;2023-03-14T16:51:13;98175.72;;;10.57;67.20
13241;BME280;6687;47.790;7.322;2023-03-14T16:53:40;98180.22;;;10.38;68.50
13241;BME280;6687;47.790;7.322;2023-03-14T16:56:08;98181.22;;;10.20;66.97
13241;BME280;6687;47.790;7.322;2023-03-14T16:58:35;98188.88;;;10.37;67.24
13241;BME280;6687;47.790;7.322;2023-03-14T17:01:03;98201.97;;;10.19;68.18
13241;BME280;6687;47.790;7.322;2023-03-14T17:03:35;98212.44;;;10.05;68.75
13241;BME280;6687;47.790;7.322;2023-03-14T17:06:02;98217.59;;;10.06;68.56
13241;BME280;6687;47.790;7.322;2023-03-14T17:08:29;98221.13;;;9.98;68.71
13241;BME280;6687;47.790;7.322;2023-03-14T17:10:56;98224.59;;;9.93;70.89
13241;BME280;6687;47.790;7.322;2023-03-14T17:13:23;98241.13;;;9.72;72.04
13241;BME280;6687;47.790;7.322;2023-03-14T17:15:53;98242.03;;;9.61;72.84
13241;BME280;6687;47.790;7.322;2023-03-14T17:18:20;98243.75;;;9.65;72.95
13241;BME280;6687;47.790;7.322;2023-03-14T17:20:49;98267.88;;;9.73;72.34
13241;BME280;6687;47.790;7.322;2023-03-14T17:23:16;98273.13;;;9.54;70.87
13241;BME280;6687;47.790;7.322;2023-03-14T17:25:45;98280.13;;;9.35;68.75
13241;BME280;6687;47.790;7.322;2023-03-14T17:28:12;98287.13;;;8.98;65.56
13241;BME280;6687;47.790;7.322;2023-03-14T17:30:38;98293.13;;;9.15;63.42
13241;BME280;6687;47.790;7.322;2023-03-14T17:33:05;98287.13;;;8.98;62.45
13241;BME280;6687;47.790;7.322;2023-03-14T17:35:32;98287.22;;;8.73;63.10
13241;BME280;6687;47.790;7.322;2023-03-14T17:38:00;98291.41;;;9.19;62.36
13241;BME280;6687;47.790;7.322;2023-03-14T17:40:27;98292.28;;;9.01;62.85
13241;BME280;6687;47.790;7.322;2023-03-14T17:42:54;98303.50;;;8.95;62.51
13241;BME280;6687;47.790;7.322;2023-03-14T17:45:21;98313.84;;;8.95;62.92
13241;BME280;6687;47.790;7.322;2023-03-14T17:47:48;98291.41;;;9.19;62.84
13241;BME280;6687;47.790;7.322;2023-03-14T17:50:15;98300.00;;;9.15;65.11
13241;BME280;6687;47.790;7.322;2023-03-14T17:52:42;98307.84;;;8.86;66.05
13241;BME280;6687;47.790;7.322;2023-03-14T17:55:10;98308.75;;;8.62;66.19
13241;BME280;6687;47.790;7.322;2023-03-14T17:57:37;98324.19;;;8.86;64.78
13241;BME280;6687;47.790;7.322;2023-03-14T18:00:09;98325.94;;;8.78;64.38
13241;BME280;6687;47.790;7.322;2023-03-14T18:02:36;98335.41;;;8.74;65.07
13241;BME280;6687;47.790;7.322;2023-03-14T18:05:03;98331.06;;;8.93;64.06
13241;BME280;6687;47.790;7.322;2023-03-14T18:07:32;98334.50;;;9.02;63.88
13241;BME280;6687;47.790;7.322;2023-03-14T18:09:59;98333.56;;;9.24;65.22
13241;BME280;6687;47.790;7.322;2023-03-14T18:12:27;98330.09;;;9.33;65.85
13241;BME280;6687;47.790;7.322;2023-03-14T18:14:54;98341.34;;;9.09;66.84
13241;BME280;6687;47.790;7.322;2023-03-14T18:17:20;98344.78;;;9.11;65.45
13241;BME280;6687;47.790;7.322;2023-03-14T18:19:47;98344.81;;;9.09;65.60
13241;BME280;6687;47.790;7.322;2023-03-14T18:22:14;98350.84;;;9.08;65.95
13241;BME280;6687;47.790;7.322;2023-03-14T18:24:41;98363.78;;;8.94;68.70
13241;BME280;6687;47.790;7.322;2023-03-14T18:27:07;98361.22;;;8.96;65.74
13241;BME280;6687;47.790;7.322;2023-03-14T18:29:36;98359.47;;;8.81;65.28
13241;BME280;6687;47.790;7.322;2023-03-14T18:32:03;98359.50;;;8.78;66.85
13241;BME280;6687;47.790;7.322;2023-03-14T18:34:30;98357.78;;;8.60;65.50
13241;BME280;6687;47.790;7.322;2023-03-14T18:36:59;98357.78;;;8.65;67.23
13241;BME280;6687;47.790;7.322;2023-03-14T18:39:26;98360.34;;;8.77;69.53
13241;BME280;6687;47.790;7.322;2023-03-14T18:41:53;98364.66;;;8.83;70.26
13241;BME280;6687;47.790;7.322;2023-03-14T18:44:20;98365.53;;;8.71;70.26
13241;BME280;6687;47.790;7.322;2023-03-14T18:46:48;98370.69;;;8.92;72.64
13241;BME280;6687;47.790;7.322;2023-03-14T18:49:15;98368.09;;;8.83;72.13
13241;BME280;6687;47.790;7.322;2023-03-14T18:51:41;98379.25;;;9.07;74.39
13241;BME280;6687;47.790;7.322;2023-03-14T18:54:09;98374.06;;;9.31;75.48
13241;BME280;6687;47.790;7.322;2023-03-14T18:56:37;98382.66;;;9.30;74.92
13241;BME280;6687;47.790;7.322;2023-03-14T18:59:04;98377.53;;;9.18;74.54
13241;BME280;6687;47.790;7.322;2023-03-14T19:01:31;98376.59;;;9.50;75.25
13241;BME280;6687;47.790;7.322;2023-03-14T19:04:00;98383.34;;;9.80;74.22
13241;BME280;6687;47.790;7.322;2023-03-14T19:06:28;98391.19;;;9.68;73.73
13241;BME280;6687;47.790;7.322;2023-03-14T19:08:57;98389.41;;;9.78;73.95
13241;BME280;6687;47.790;7.322;2023-03-14T19:11:24;98384.06;;;10.08;73.55
13241;BME280;6687;47.790;7.322;2023-03-14T19:13:51;98388.31;;;10.22;73.15
13241;BME280;6687;47.790;7.322;2023-03-14T19:16:19;98391.13;;;9.79;71.86
13241;BME280;6687;47.790;7.322;2023-03-14T19:18:48;98385.00;;;10.00;72.60
13241;BME280;6687;47.790;7.322;2023-03-14T19:21:25;98384.06;;;10.11;72.55
13241;BME280;6687;47.790;7.322;2023-03-14T19:23:52;98390.06;;;10.18;71.78
13241;BME280;6687;47.790;7.322;2023-03-14T19:26:19;98396.94;;;10.24;71.74
13241;BME280;6687;47.790;7.322;2023-03-14T19:28:46;98395.19;;;10.37;71.91
13241;BME280;6687;47.790;7.322;2023-03-14T19:31:13;98395.94;;;10.46;70.88
13241;BME280;6687;47.790;7.322;2023-03-14T19:33:39;98395.84;;;10.62;70.54
13241;BME280;6687;47.790;7.322;2023-03-14T19:36:07;98405.50;;;10.41;70.00
13241;BME280;6687;47.790;7.322;2023-03-14T19:38:36;98410.63;;;10.47;70.74
13241;BME280;6687;47.790;7.322;2023-03-14T19:41:03;98408.78;;;10.65;70.08